Time;durP1;ratioP1;P1;durP2;ratioP2;P2;SDS_P1;SDS_P2;PMS_P1;PMS_P2;Temp;Humidity;BMP_temperature;BMP_pressure;BME280_temperature;BME280_humidity;BME280_pressure;Samples;Min_cycle;Max_cycle;Signal;HPM_P1;HPM_P2
2023/03/18 00:00:20;;;;;;;5.15;4.65;;;14.20;39.60;;;;;;21199;6624;272177;-75
2023/03/18 00:02:46;;;;;;;5.07;4.67;;;14.50;39.50;;;;;;21064;6651;301878;-73
2023/03/18 00:05:12;;;;;;;5.10;4.70;;;14.70;39.40;;;;;;21085;6651;335496;-74
2023/03/18 00:07:37;;;;;;;5.17;4.70;;;14.60;39.20;;;;;;21327;6651;89188;-73
2023/03/18 00:10:03;;;;;;;5.60;5.00;;;14.40;39.50;;;;;;21118;6651;301842;-73
2023/03/18 00:12:29;;;;;;;6.50;4.90;;;14.30;39.80;;;;;;21101;6653;301207;-73
2023/03/18 00:14:54;;;;;;;5.57;4.97;;;14.40;39.70;;;;;;21173;6634;308336;-73
2023/03/18 00:17:20;;;;;;;4.63;4.30;;;14.50;39.80;;;;;;21380;6638;67139;-73
2023/03/18 00:19:45;;;;;;;5.27;4.87;;;14.20;39.90;;;;;;21332;6653;66792;-73
2023/03/18 00:22:11;;;;;;;5.80;5.17;;;13.80;40.40;;;;;;21161;6634;304225;-73
2023/03/18 00:24:36;;;;;;;6.12;5.07;;;13.80;40.90;;;;;;21344;6651;66862;-73
2023/03/18 00:27:02;;;;;;;6.20;5.07;;;13.70;40.90;;;;;;21141;6642;272732;-73
2023/03/18 00:29:28;;;;;;;4.57;4.27;;;13.80;41.10;;;;;;21375;6636;69062;-73
2023/03/18 00:31:54;;;;;;;5.05;4.53;;;13.40;41.30;;;;;;21330;6651;66727;-73
2023/03/18 00:34:19;;;;;;;5.53;4.50;;;13.40;41.30;;;;;;21332;6651;66766;-73
2023/03/18 00:36:48;;;;;;;5.90;5.00;;;13.20;41.70;;;;;;21126;6651;277805;-73
2023/03/18 00:39:12;;;;;;;5.43;4.93;;;13.30;41.70;;;;;;21127;6642;300396;-73
2023/03/18 00:41:37;;;;;;;5.40;5.00;;;13.70;41.50;;;;;;21368;6636;67015;-76
2023/03/18 00:44:03;;;;;;;5.80;5.30;;;13.60;41.30;;;;;;21165;6638;301477;-73
2023/03/18 00:46:29;;;;;;;4.90;4.40;;;13.70;41.50;;;;;;21401;6634;66152;-73
2023/03/18 00:48:54;;;;;;;5.37;4.93;;;13.60;42.20;;;;;;21113;6651;301063;-73
2023/03/18 00:51:20;;;;;;;5.83;5.33;;;13.70;41.70;;;;;;21317;6651;66330;-73
2023/03/18 00:53:46;;;;;;;5.62;5.12;;;13.60;41.50;;;;;;21120;6651;276382;-73
2023/03/18 00:56:12;;;;;;;5.75;5.22;;;13.60;41.50;;;;;;21115;6651;286740;-74
2023/03/18 00:58:37;;;;;;;5.73;5.23;;;13.90;41.10;;;;;;21110;6651;293927;-75
2023/03/18 01:01:03;;;;;;;5.50;5.00;;;14.00;41.10;;;;;;21354;6642;67369;-73
2023/03/18 01:03:29;;;;;;;5.07;4.67;;;13.90;41.10;;;;;;21366;6636;69291;-74
2023/03/18 01:05:55;;;;;;;5.20;4.80;;;13.60;41.50;;;;;;21118;6653;313798;-74
2023/03/18 01:08:20;;;;;;;5.60;5.15;;;13.50;41.40;;;;;;21181;6634;271355;-73
2023/03/18 01:10:47;;;;;;;4.87;4.47;;;13.80;41.00;;;;;;21347;6649;66879;-73
2023/03/18 01:13:13;;;;;;;5.07;4.60;;;13.70;41.10;;;;;;21328;6651;67052;-73
2023/03/18 01:15:38;;;;;;;5.23;4.00;;;13.40;41.50;;;;;;21339;6651;66781;-73
2023/03/18 01:18:04;;;;;;;4.47;3.87;;;13.20;41.80;;;;;;21367;6640;68755;-74
2023/03/18 01:20:29;;;;;;;4.32;3.70;;;12.90;41.90;;;;;;21426;6624;66257;-74
2023/03/18 01:22:57;;;;;;;4.00;3.37;;;13.00;40.70;;;;;;21192;6625;301629;-72
2023/03/18 01:25:22;;;;;;;3.80;3.50;;;13.00;40.60;;;;;;21194;6625;304328;-73
2023/03/18 01:27:49;;;;;;;4.23;3.07;;;13.50;39.80;;;;;;21338;6651;67147;-74
2023/03/18 01:30:14;;;;;;;3.43;3.13;;;13.40;39.70;;;;;;21358;6642;66604;-73
2023/03/18 01:32:40;;;;;;;3.78;3.30;;;13.30;40.00;;;;;;21149;6636;300285;-73
2023/03/18 01:35:05;;;;;;;3.50;3.20;;;13.50;39.30;;;;;;21103;6651;301800;-74
2023/03/18 01:37:32;;;;;;;3.23;2.97;;;14.10;37.90;;;;;;21108;6653;301345;-74
2023/03/18 01:39:57;;;;;;;3.30;3.07;;;14.10;37.80;;;;;;21337;6651;66370;-73
2023/03/18 01:42:23;;;;;;;3.20;2.80;;;14.00;38.20;;;;;;21320;6651;66283;-73
2023/03/18 01:44:48;;;;;;;2.83;2.62;;;13.80;38.80;;;;;;21341;6651;67150;-74
2023/03/18 01:47:17;;;;;;;3.87;3.40;;;13.50;39.20;;;;;;21104;6651;307678;-73
2023/03/18 01:49:44;;;;;;;3.83;3.53;;;14.00;39.20;;;;;;21148;6642;272762;-73
2023/03/18 01:52:11;;;;;;;4.20;3.80;;;14.00;39.20;;;;;;21357;6636;67230;-73
2023/03/18 01:54:35;;;;;;;4.10;3.80;;;13.90;39.30;;;;;;21081;6653;308466;-73
2023/03/18 01:57:01;;;;;;;4.43;3.50;;;13.90;40.00;;;;;;21392;6634;66942;-73
2023/03/18 01:59:27;;;;;;;3.77;3.30;;;13.90;40.00;;;;;;21293;6651;69558;-73
2023/03/18 02:02:02;;;;;;;2.93;2.73;;;13.70;40.20;;;;;;21315;6651;66878;-73
2023/03/18 02:04:27;;;;;;;3.50;3.20;;;13.40;40.20;;;;;;21112;6651;272511;-73
2023/03/18 02:06:54;;;;;;;3.30;3.00;;;13.60;38.90;;;;;;21318;6651;67205;-73
2023/03/18 02:09:20;;;;;;;3.20;2.27;;;13.60;39.00;;;;;;21334;6651;67357;-73
2023/03/18 02:11:48;;;;;;;2.90;2.70;;;13.40;39.10;;;;;;21114;6651;300875;-73
2023/03/18 02:14:12;;;;;;;3.10;2.80;;;13.50;38.00;;;;;;21317;6651;89609;-73
2023/03/18 02:16:37;;;;;;;3.13;2.90;;;13.50;38.30;;;;;;21123;6651;272586;-73
2023/03/18 02:19:04;;;;;;;2.80;2.60;;;13.60;38.40;;;;;;21312;6651;66639;-72
2023/03/18 02:21:38;;;;;;;3.73;3.10;;;13.60;38.10;;;;;;21331;6640;68381;-73
2023/03/18 02:24:04;;;;;;;3.33;3.03;;;13.40;38.60;;;;;;21170;6636;272398;-73
2023/03/18 02:26:32;;;;;;;3.33;3.10;;;13.50;38.90;;;;;;21096;6652;273351;-73
2023/03/18 02:28:58;;;;;;;3.77;3.40;;;13.70;38.70;;;;;;21368;6634;66827;-73
2023/03/18 02:31:23;;;;;;;4.00;3.70;;;13.60;38.90;;;;;;21096;6651;304661;-72
2023/03/18 02:33:50;;;;;;;3.22;2.85;;;13.40;39.60;;;;;;21342;6651;71058;-73
2023/03/18 02:36:18;;;;;;;4.03;3.63;;;13.40;39.50;;;;;;21155;6642;278935;-73
2023/03/18 02:38:44;;;;;;;3.80;3.50;;;13.40;40.00;;;;;;21370;6636;77440;-73
2023/03/18 02:41:19;;;;;;;4.27;3.87;;;13.30;40.00;;;;;;21329;6651;67418;-72
2023/03/18 02:43:45;;;;;;;4.30;3.87;;;13.10;40.30;;;;;;21134;6638;300119;-73
2023/03/18 02:46:50;;;;;;;4.43;4.10;;;13.10;40.50;;;;;;21392;6634;67135;-73
2023/03/18 02:49:16;;;;;;;4.63;4.23;;;13.00;40.50;;;;;;21112;6651;306570;-73
2023/03/18 02:51:41;;;;;;;4.90;3.90;;;13.20;41.00;;;;;;21086;6651;272714;-72
2023/03/18 02:54:07;;;;;;;4.30;3.10;;;13.40;40.20;;;;;;21125;6651;302132;-73
2023/03/18 02:56:32;;;;;;;3.17;2.93;;;13.60;38.80;;;;;;21115;6642;301740;-73
2023/03/18 02:58:58;;;;;;;2.90;2.70;;;13.70;38.50;;;;;;21145;6636;305145;-73
2023/03/18 03:01:24;;;;;;;3.50;3.20;;;13.90;37.70;;;;;;21146;6638;273735;-73
2023/03/18 03:03:50;;;;;;;4.37;3.00;;;13.90;37.30;;;;;;21045;6634;312063;-73
2023/03/18 03:06:15;;;;;;;3.12;2.83;;;14.00;36.70;;;;;;21074;6651;286362;-73
2023/03/18 03:08:41;;;;;;;2.57;2.27;;;13.90;36.80;;;;;;21322;6653;66781;-73
2023/03/18 03:11:07;;;;;;;3.33;2.70;;;13.80;37.10;;;;;;21153;6624;301580;-73
2023/03/18 03:13:33;;;;;;;3.30;3.00;;;13.80;36.80;;;;;;21090;6651;302170;-73
2023/03/18 03:15:59;;;;;;;2.87;2.67;;;14.00;37.00;;;;;;21366;6642;67160;-73
2023/03/18 03:18:25;;;;;;;2.93;2.70;;;13.80;37.50;;;;;;21376;6636;67175;-73
2023/03/18 03:20:52;;;;;;;3.33;3.10;;;13.40;38.10;;;;;;21103;6653;338736;-73
2023/03/18 03:23:19;;;;;;;5.93;3.07;;;13.30;39.10;;;;;;21372;6634;67492;-75
2023/03/18 03:25:44;;;;;;;4.93;3.17;;;13.30;39.10;;;;;;21114;6651;330973;-73
2023/03/18 03:28:11;;;;;;;3.27;2.90;;;13.60;39.30;;;;;;21155;6638;275193;-73
2023/03/18 03:30:36;;;;;;;3.67;2.70;;;13.60;39.20;;;;;;21380;6634;69867;-73
2023/03/18 03:33:02;;;;;;;3.90;3.50;;;13.50;39.80;;;;;;21115;6649;272066;-73
2023/03/18 03:35:28;;;;;;;3.70;3.40;;;13.40;39.70;;;;;;21101;6652;302762;-73
2023/03/18 03:37:54;;;;;;;4.67;3.50;;;13.60;39.30;;;;;;21164;6633;304776;-73
2023/03/18 03:40:19;;;;;;;3.80;3.40;;;13.70;39.10;;;;;;21124;6651;272524;-73
2023/03/18 03:42:45;;;;;;;3.80;3.50;;;13.80;38.30;;;;;;21097;6651;275092;-73
2023/03/18 03:45:11;;;;;;;3.65;2.87;;;13.90;38.20;;;;;;21119;6651;272331;-73
2023/03/18 03:47:36;;;;;;;2.70;2.50;;;13.90;37.80;;;;;;21107;6651;301636;-73
2023/03/18 03:50:01;;;;;;;2.60;2.40;;;13.90;37.00;;;;;;21318;6651;68915;-73
2023/03/18 03:52:27;;;;;;;2.73;2.20;;;13.60;37.50;;;;;;21132;6642;272462;-73
2023/03/18 03:54:55;;;;;;;3.07;2.50;;;13.60;36.70;;;;;;21158;6636;277662;-73
2023/03/18 03:57:19;;;;;;;2.60;2.40;;;13.60;36.60;;;;;;21321;6653;67110;-74
2023/03/18 03:59:44;;;;;;;2.28;2.10;;;13.50;37.20;;;;;;21162;6634;305730;-73
2023/03/18 04:02:10;;;;;;;2.08;1.87;;;13.40;37.20;;;;;;21327;6651;66425;-73
2023/03/18 04:04:36;;;;;;;2.43;2.23;;;13.30;37.80;;;;;;21119;6653;273040;-72
2023/03/18 04:07:02;;;;;;;2.58;2.15;;;13.30;37.10;;;;;;21166;6634;275320;-73
2023/03/18 04:09:27;;;;;;;4.67;2.43;;;13.50;36.70;;;;;;21339;6651;66779;-73
2023/03/18 04:11:53;;;;;;;2.90;2.70;;;13.30;37.10;;;;;;21108;6651;301255;-73
2023/03/18 04:14:20;;;;;;;4.00;2.40;;;13.20;38.20;;;;;;21366;6638;66203;-73
2023/03/18 04:16:45;;;;;;;3.57;3.27;;;13.10;38.10;;;;;;21390;6634;66549;-73
2023/03/18 04:19:12;;;;;;;3.87;3.20;;;12.50;39.20;;;;;;21331;6651;66417;-73
2023/03/18 04:21:37;;;;;;;2.90;2.70;;;12.50;39.20;;;;;;21331;6651;66269;-73
2023/03/18 04:24:03;;;;;;;3.40;3.10;;;12.30;39.80;;;;;;21339;6651;76876;-73
2023/03/18 04:26:29;;;;;;;3.80;3.57;;;12.10;40.30;;;;;;21115;6653;301695;-73
2023/03/18 04:28:54;;;;;;;3.58;3.30;;;12.20;41.00;;;;;;21369;6634;66660;-73
2023/03/18 04:31:19;;;;;;;3.63;3.33;;;12.20;40.80;;;;;;21390;6634;66880;-73
2023/03/18 04:33:46;;;;;;;4.47;3.70;;;12.00;41.00;;;;;;21347;6651;66907;-73
2023/03/18 04:36:11;;;;;;;3.80;3.40;;;11.80;41.40;;;;;;21126;6651;277518;-73
2023/03/18 04:38:37;;;;;;;3.23;3.03;;;12.00;42.10;;;;;;21365;6642;67930;-73
2023/03/18 04:41:02;;;;;;;4.07;3.50;;;12.10;41.70;;;;;;21152;6636;294616;-73
2023/03/18 04:43:28;;;;;;;3.75;3.17;;;12.10;41.60;;;;;;21113;6651;301100;-73
2023/03/18 04:45:54;;;;;;;4.80;3.13;;;12.40;41.30;;;;;;21338;6650;66385;-73
2023/03/18 04:48:20;;;;;;;3.80;3.50;;;12.40;41.30;;;;;;21146;6642;305273;-73
2023/03/18 04:50:45;;;;;;;3.77;3.10;;;12.40;41.30;;;;;;21390;6636;66663;-73
2023/03/18 04:53:12;;;;;;;3.30;3.10;;;12.00;41.60;;;;;;21323;6653;67563;-73
2023/03/18 04:55:37;;;;;;;3.00;2.80;;;12.00;41.60;;;;;;21408;6634;66601;-73
2023/03/18 04:58:03;;;;;;;3.55;3.22;;;11.80;41.90;;;;;;21331;6651;66444;-73
2023/03/18 05:00:28;;;;;;;4.55;3.40;;;11.60;42.10;;;;;;21121;6651;334222;-74
2023/03/18 05:02:56;;;;;;;3.50;3.30;;;11.80;42.10;;;;;;21331;6651;66914;-73
2023/03/18 05:05:21;;;;;;;3.60;3.30;;;11.80;42.10;;;;;;21164;6636;301600;-74
2023/03/18 05:07:47;;;;;;;3.90;3.55;;;11.90;42.00;;;;;;21121;6651;300775;-72
2023/03/18 05:10:13;;;;;;;3.20;3.00;;;12.30;41.30;;;;;;21333;6651;66365;-75
2023/03/18 05:12:38;;;;;;;3.50;3.30;;;12.10;41.20;;;;;;21139;6642;271978;-74
2023/03/18 05:15:04;;;;;;;4.27;3.20;;;12.20;41.10;;;;;;21160;6636;271677;-74
2023/03/18 05:17:29;;;;;;;3.63;3.30;;;12.40;40.80;;;;;;21070;6653;309279;-74
2023/03/18 05:19:56;;;;;;;3.87;3.00;;;12.20;41.20;;;;;;21392;6634;67053;-75
2023/03/18 05:22:21;;;;;;;3.20;2.90;;;12.20;40.40;;;;;;21318;6651;67595;-73
2023/03/18 05:24:49;;;;;;;4.93;3.47;;;11.80;40.80;;;;;;21128;6651;304252;-75
2023/03/18 05:27:14;;;;;;;3.47;3.17;;;11.80;41.20;;;;;;21133;6651;272397;-76
2023/03/18 05:29:40;;;;;;;4.37;3.20;;;12.00;41.20;;;;;;21111;6651;301247;-76
2023/03/18 05:32:08;;;;;;;2.90;2.70;;;12.20;40.90;;;;;;21325;6651;67262;-73
2023/03/18 05:34:35;;;;;;;5.00;2.80;;;11.90;41.00;;;;;;21344;6651;66754;-77
2023/03/18 05:37:00;;;;;;;3.23;3.03;;;11.20;42.10;;;;;;21344;6651;68060;-79
2023/03/18 05:39:26;;;;;;;3.40;3.07;;;11.10;42.00;;;;;;21357;6642;69364;-77
2023/03/18 05:41:51;;;;;;;3.57;3.37;;;10.90;42.40;;;;;;21163;6636;272273;-77
2023/03/18 05:44:18;;;;;;;3.00;2.83;;;11.00;43.00;;;;;;21345;6651;66750;-78
2023/03/18 05:46:44;;;;;;;5.30;3.00;;;11.00;42.80;;;;;;21162;6638;301121;-79
2023/03/18 05:49:10;;;;;;;3.30;3.00;;;11.10;43.90;;;;;;21396;6634;66854;-79
2023/03/18 05:51:36;;;;;;;3.65;3.20;;;11.10;43.70;;;;;;21189;6638;299719;-79
2023/03/18 05:54:03;;;;;;;3.37;3.07;;;11.20;42.50;;;;;;21408;6634;71482;-75
2023/03/18 05:56:29;;;;;;;3.10;2.70;;;11.10;42.30;;;;;;21355;6649;67214;-75
2023/03/18 05:58:54;;;;;;;2.92;2.72;;;10.90;42.70;;;;;;21147;6651;320714;-75
2023/03/18 06:01:20;;;;;;;3.27;3.07;;;11.10;43.20;;;;;;21331;6652;66301;-76
2023/03/18 06:03:46;;;;;;;3.73;2.53;;;11.10;43.10;;;;;;21426;6624;66523;-77
2023/03/18 06:06:12;;;;;;;2.95;2.78;;;10.90;43.10;;;;;;21417;6624;68752;-79
2023/03/18 06:08:38;;;;;;;3.97;2.90;;;10.80;43.30;;;;;;21154;6638;275638;-75
2023/03/18 06:11:04;;;;;;;2.70;2.50;;;11.00;43.00;;;;;;21318;6651;66844;-75
2023/03/18 06:13:31;;;;;;;3.13;2.93;;;11.00;43.00;;;;;;21327;6651;76597;-76
2023/03/18 06:15:59;;;;;;;3.45;3.15;;;10.90;43.20;;;;;;21144;6642;300571;-76
2023/03/18 06:18:26;;;;;;;4.20;3.60;;;11.10;43.60;;;;;;21170;6636;274750;-75
2023/03/18 06:20:53;;;;;;;3.87;3.57;;;11.60;42.90;;;;;;21122;6651;293509;-76
2023/03/18 06:23:18;;;;;;;3.70;3.13;;;11.90;42.80;;;;;;21357;6642;70346;-76
2023/03/18 06:25:48;;;;;;;5.07;3.77;;;11.80;43.50;;;;;;21174;6636;306277;-77
2023/03/18 06:28:13;;;;;;;3.93;3.63;;;11.70;42.90;;;;;;21326;6653;68584;-76
2023/03/18 06:30:39;;;;;;;3.73;3.23;;;11.60;43.00;;;;;;21382;6634;66586;-76
2023/03/18 06:33:04;;;;;;;4.22;3.83;;;11.30;43.30;;;;;;21109;6651;304863;-76
2023/03/18 06:35:30;;;;;;;5.37;3.83;;;11.40;43.50;;;;;;21126;6651;272401;-76
2023/03/18 06:37:56;;;;;;;3.93;3.60;;;11.80;43.20;;;;;;21144;6642;304921;-75
2023/03/18 06:40:22;;;;;;;3.43;3.20;;;12.00;42.60;;;;;;21342;6651;66747;-76
2023/03/18 06:42:48;;;;;;;3.90;3.60;;;12.00;42.70;;;;;;21110;6651;302068;-76
2023/03/18 06:45:15;;;;;;;4.43;4.03;;;12.00;42.60;;;;;;21327;6653;67815;-75
2023/03/18 06:47:41;;;;;;;3.80;3.50;;;11.90;42.70;;;;;;21430;6624;67853;-75
2023/03/18 06:50:07;;;;;;;4.00;3.60;;;11.70;43.00;;;;;;21214;6625;304974;-75
2023/03/18 06:52:34;;;;;;;3.77;3.30;;;11.90;43.10;;;;;;21336;6651;70338;-75
2023/03/18 06:54:59;;;;;;;3.87;3.40;;;11.90;43.00;;;;;;21337;6651;66335;-77
2023/03/18 06:57:25;;;;;;;3.90;3.60;;;11.80;43.30;;;;;;21118;6651;300975;-74
2023/03/18 06:59:52;;;;;;;4.47;3.80;;;12.40;42.50;;;;;;21114;6651;330150;-77
2023/03/18 07:02:17;;;;;;;3.60;3.30;;;12.40;42.50;;;;;;21319;6651;67749;-73
2023/03/18 07:04:44;;;;;;;4.25;3.58;;;12.30;42.30;;;;;;21323;6653;69927;-74
2023/03/18 07:07:09;;;;;;;3.92;3.62;;;12.10;42.80;;;;;;21171;6632;271410;-73
2023/03/18 07:09:35;;;;;;;4.70;3.30;;;12.40;42.80;;;;;;21327;6650;67299;-73
2023/03/18 07:12:01;;;;;;;3.28;2.97;;;12.50;42.80;;;;;;21335;6651;66371;-72
2023/03/18 07:14:27;;;;;;;3.50;3.20;;;12.40;43.00;;;;;;21336;6651;67301;-74
2023/03/18 07:16:54;;;;;;;3.55;3.25;;;12.40;43.10;;;;;;21116;6651;300429;-75
2023/03/18 07:19:18;;;;;;;3.53;3.23;;;12.80;42.60;;;;;;21105;6653;301399;-73
2023/03/18 07:21:45;;;;;;;3.95;3.12;;;13.40;41.40;;;;;;21372;6634;66172;-72
2023/03/18 07:24:13;;;;;;;4.37;3.50;;;13.50;41.30;;;;;;21121;6651;272477;-73
2023/03/18 07:26:38;;;;;;;5.70;3.50;;;13.80;40.60;;;;;;21108;6651;303198;-73
2023/03/18 07:29:04;;;;;;;3.97;3.62;;;14.20;40.60;;;;;;21327;6651;66926;-73
2023/03/18 07:31:30;;;;;;;4.80;3.50;;;14.20;40.10;;;;;;21324;6651;66551;-73
2023/03/18 07:33:56;;;;;;;12.40;4.00;;;14.10;40.50;;;;;;21112;6651;275319;-73
2023/03/18 07:36:21;;;;;;;7.97;3.70;;;14.30;40.10;;;;;;21119;6651;273486;-73
2023/03/18 07:38:49;;;;;;;3.53;3.33;;;14.70;39.60;;;;;;21325;6651;66334;-73
2023/03/18 07:41:14;;;;;;;5.00;3.57;;;14.60;39.40;;;;;;21096;6651;272108;-73
2023/03/18 07:43:40;;;;;;;8.68;3.60;;;14.80;39.00;;;;;;21105;6651;273570;-74
2023/03/18 07:46:05;;;;;;;3.50;3.30;;;15.20;38.80;;;;;;21339;6651;67630;-75
2023/03/18 07:48:32;;;;;;;4.80;4.07;;;15.30;39.10;;;;;;21101;6651;301457;-73
2023/03/18 07:50:58;;;;;;;3.30;3.10;;;15.40;38.90;;;;;;21330;6651;67569;-71
2023/03/18 07:53:29;;;;;;;10.03;3.30;;;15.50;39.20;;;;;;21329;6651;67256;-73
2023/03/18 07:55:54;;;;;;;3.80;3.50;;;15.40;39.50;;;;;;21114;6651;336012;-72
2023/03/18 07:58:20;;;;;;;4.03;3.50;;;15.60;38.60;;;;;;21336;6651;66635;-72
2023/03/18 08:00:48;;;;;;;3.87;3.50;;;15.70;38.50;;;;;;21122;6651;272366;-74
2023/03/18 08:03:13;;;;;;;5.57;3.33;;;16.00;38.40;;;;;;21369;6638;69448;-74
2023/03/18 08:05:39;;;;;;;3.27;3.07;;;16.00;38.40;;;;;;21394;6634;66433;-73
2023/03/18 08:08:04;;;;;;;3.83;3.53;;;15.90;38.70;;;;;;21329;6651;70344;-72
2023/03/18 08:10:30;;;;;;;4.63;3.40;;;15.80;38.80;;;;;;21325;6651;66841;-72
2023/03/18 08:12:55;;;;;;;4.30;3.37;;;15.80;39.00;;;;;;21096;6651;304625;-72
2023/03/18 08:15:21;;;;;;;4.33;3.20;;;16.10;37.70;;;;;;21330;6651;74255;-70
2023/03/18 08:17:47;;;;;;;7.13;3.73;;;16.70;37.30;;;;;;21146;6642;274024;-72
2023/03/18 08:20:13;;;;;;;8.57;3.43;;;16.70;37.30;;;;;;21158;6635;300886;-71
2023/03/18 08:22:38;;;;;;;5.70;3.00;;;17.20;36.20;;;;;;21324;6651;69895;-71
2023/03/18 08:25:04;;;;;;;3.58;3.12;;;17.30;36.70;;;;;;21108;6652;273513;-73
2023/03/18 08:27:30;;;;;;;3.13;2.77;;;17.60;35.50;;;;;;21330;6651;67315;-72
2023/03/18 08:29:56;;;;;;;5.27;2.93;;;17.60;35.80;;;;;;21363;6642;66270;-71
2023/03/18 08:32:21;;;;;;;2.92;2.72;;;17.60;36.30;;;;;;21133;6636;302116;-72
2023/03/18 08:34:46;;;;;;;3.85;2.75;;;17.80;34.80;;;;;;21346;6651;67060;-70
2023/03/18 08:37:13;;;;;;;3.37;2.30;;;17.90;35.10;;;;;;21334;6651;70242;-72
2023/03/18 08:39:38;;;;;;;3.40;3.10;;;17.80;35.40;;;;;;21114;6651;302461;-73
2023/03/18 08:42:03;;;;;;;2.97;2.62;;;18.00;33.80;;;;;;21147;6642;271216;-70
2023/03/18 08:44:33;;;;;;;2.83;2.63;;;18.60;33.50;;;;;;21399;6636;66880;-74
2023/03/18 08:47:01;;;;;;;3.07;2.37;;;18.60;34.30;;;;;;21343;6653;66241;-76
2023/03/18 08:49:26;;;;;;;4.97;2.80;;;18.50;34.20;;;;;;21399;6634;66260;-72
2023/03/18 08:51:52;;;;;;;2.77;2.47;;;18.50;34.40;;;;;;21113;6651;278375;-73
2023/03/18 08:54:20;;;;;;;2.67;2.33;;;18.80;32.00;;;;;;21123;6651;306815;-77
2023/03/18 08:56:46;;;;;;;2.87;2.27;;;19.20;32.40;;;;;;21332;6651;77235;-74
2023/03/18 08:59:13;;;;;;;2.63;2.20;;;19.30;32.90;;;;;;21324;6651;67171;-77
2023/03/18 09:01:39;;;;;;;6.50;2.20;;;19.00;32.70;;;;;;21329;6651;67920;-74
2023/03/18 09:04:05;;;;;;;3.27;1.90;;;19.00;32.70;;;;;;21327;6651;66617;-75
2023/03/18 09:06:30;;;;;;;2.20;2.00;;;19.00;32.90;;;;;;21357;6642;66192;-76
2023/03/18 09:08:56;;;;;;;2.50;1.80;;;18.90;32.90;;;;;;21122;6651;275975;-75
2023/03/18 09:11:21;;;;;;;2.30;1.80;;;19.20;30.50;;;;;;21102;6651;306071;-72
2023/03/18 09:13:47;;;;;;;2.00;1.70;;;19.60;30.00;;;;;;21338;6651;75717;-76
2023/03/18 09:16:12;;;;;;;2.90;1.40;;;19.70;30.40;;;;;;21352;6651;66370;-72
2023/03/18 09:18:39;;;;;;;1.90;1.50;;;19.70;30.40;;;;;;21165;6651;271933;-71
2023/03/18 09:21:03;;;;;;;1.63;1.30;;;19.90;28.60;;;;;;21180;6642;333954;-72
2023/03/18 09:23:31;;;;;;;3.15;1.67;;;20.20;27.70;;;;;;21115;6636;276438;-72
2023/03/18 09:25:56;;;;;;;1.97;1.40;;;20.50;27.60;;;;;;21182;6653;300608;-71
2023/03/18 09:28:22;;;;;;;1.45;1.30;;;20.80;26.50;;;;;;21260;6634;117729;-72
2023/03/18 09:30:47;;;;;;;2.97;1.27;;;20.80;27.30;;;;;;20739;6846;116309;-72
2023/03/18 09:33:12;;;;;;;1.20;1.10;;;20.60;27.40;;;;;;20712;6848;120152;-71
2023/03/18 09:35:38;;;;;;;2.30;1.35;;;20.40;27.70;;;;;;20541;6848;306892;-72
2023/03/18 09:38:06;;;;;;;2.00;1.20;;;20.70;25.30;;;;;;20454;6864;307858;-73
2023/03/18 09:40:31;;;;;;;2.20;1.40;;;20.70;25.30;;;;;;20509;6850;337123;-75
2023/03/18 09:43:16;;;;;;;2.57;1.50;;;21.00;25.50;;;;;;20638;6866;117385;-75
2023/03/18 09:45:45;;;;;;;2.22;1.30;;;21.00;26.30;;;;;;20263;6850;307350;-72
2023/03/18 09:48:43;;;;;;;1.73;1.43;;;21.10;26.10;;;;;;20485;6850;307936;-75
2023/03/18 09:51:27;;;;;;;2.40;1.40;;;21.30;25.20;;;;;;20483;6850;280039;-71
2023/03/18 09:53:57;;;;;;;3.10;1.67;;;21.50;25.10;;;;;;20454;6850;312314;-69
2023/03/18 09:56:23;;;;;;;2.03;1.30;;;21.70;25.00;;;;;;20533;6866;117442;-71
2023/03/18 09:58:52;;;;;;;1.67;1.57;;;21.60;25.70;;;;;;20470;6847;118202;-71
2023/03/18 10:01:17;;;;;;;4.73;1.63;;;21.40;26.20;;;;;;20446;6850;306203;-69
2023/03/18 10:03:50;;;;;;;3.10;1.17;;;21.60;26.10;;;;;;20684;6850;117642;-71
2023/03/18 10:06:19;;;;;;;1.87;1.47;;;21.60;26.10;;;;;;20675;6850;118669;-70
2023/03/18 10:08:57;;;;;;;2.10;1.13;;;21.40;26.00;;;;;;20700;6848;117351;-70
2023/03/18 10:11:32;;;;;;;3.65;1.60;;;21.30;26.30;;;;;;20412;6865;336903;-70
2023/03/18 10:14:05;;;;;;;2.50;1.50;;;21.40;25.10;;;;;;20676;6850;117823;-70
2023/03/18 10:16:30;;;;;;;4.40;1.53;;;21.50;26.00;;;;;;20573;6867;117044;-70
2023/03/18 10:18:56;;;;;;;2.67;1.80;;;21.30;26.00;;;;;;20386;6875;326623;-70
2023/03/18 10:21:31;;;;;;;3.50;1.65;;;21.50;25.20;;;;;;20434;6860;279299;-70
2023/03/18 10:24:19;;;;;;;2.00;1.70;;;21.80;25.20;;;;;;19739;6860;308082;-71
2023/03/18 10:27:00;;;;;;;2.42;1.60;;;22.10;25.00;;;;;;20431;6860;278396;-72
2023/03/18 10:29:39;;;;;;;2.30;1.60;;;22.40;25.00;;;;;;20411;6860;312345;-73
2023/03/18 10:32:17;;;;;;;1.97;1.53;;;22.60;24.70;;;;;;20630;6860;118743;-74
2023/03/18 10:35:05;;;;;;;2.90;1.70;;;22.50;25.30;;;;;;20446;6860;309158;-71
2023/03/18 10:37:54;;;;;;;3.93;1.70;;;22.60;24.80;;;;;;20639;6860;117662;-75
2023/03/18 10:40:19;;;;;;;2.00;1.50;;;22.50;24.90;;;;;;20442;6860;279141;-73
2023/03/18 10:42:45;;;;;;;2.97;1.90;;;22.60;25.00;;;;;;20445;6858;308694;-74
2023/03/18 10:45:22;;;;;;;1.90;1.80;;;22.50;25.40;;;;;;20646;6859;118276;-74
2023/03/18 10:47:59;;;;;;;3.53;1.60;;;22.50;25.40;;;;;;20546;6859;117628;-70
2023/03/18 10:50:34;;;;;;;2.17;1.40;;;22.20;25.60;;;;;;20646;6859;122633;-72
2023/03/18 10:53:12;;;;;;;3.43;1.77;;;21.80;25.60;;;;;;20431;6860;302112;-73
2023/03/18 10:55:36;;;;;;;1.70;1.60;;;21.80;25.60;;;;;;20630;6860;120201;-74
2023/03/18 10:58:15;;;;;;;2.10;1.80;;;21.90;25.60;;;;;;20422;6860;307671;-71
2023/03/18 11:00:41;;;;;;;3.62;1.70;;;21.90;25.80;;;;;;20256;6860;308083;-71
2023/03/18 11:03:12;;;;;;;3.33;1.50;;;22.30;26.50;;;;;;20644;6860;118299;-72
2023/03/18 11:05:39;;;;;;;2.10;1.90;;;22.10;26.40;;;;;;20629;6860;123425;-73
2023/03/18 11:08:10;;;;;;;2.50;1.70;;;22.10;26.40;;;;;;20420;6860;310737;-73
2023/03/18 11:10:35;;;;;;;1.83;1.57;;;22.30;25.80;;;;;;20579;6860;117031;-73
2023/03/18 11:13:05;;;;;;;2.00;1.80;;;22.30;26.30;;;;;;20412;6860;307675;-72
2023/03/18 11:15:35;;;;;;;2.40;1.70;;;22.50;26.10;;;;;;20459;6860;286037;-71
2023/03/18 11:18:02;;;;;;;2.40;1.70;;;22.80;24.90;;;;;;20432;6859;278507;-74
2023/03/18 11:20:41;;;;;;;1.73;1.63;;;23.20;25.50;;;;;;20464;6860;278443;-72
2023/03/18 11:23:11;;;;;;;1.50;1.40;;;23.30;26.00;;;;;;20654;6860;117595;-73
2023/03/18 11:25:31;;;;;;;4.13;1.67;;;23.30;25.30;;;;;;20418;6860;309417;-70
2023/03/18 11:27:58;;;;;;;1.90;1.57;;;23.40;23.60;;;;;;20433;6860;308616;-69
2023/03/18 11:30:26;;;;;;;2.33;1.40;;;23.40;23.60;;;;;;20657;6860;117406;-70
2023/03/18 11:33:12;;;;;;;1.17;1.03;;;23.00;24.70;;;;;;20674;6860;118235;-70
2023/03/18 11:35:44;;;;;;;2.72;2.12;;;22.90;24.70;;;;;;20458;6860;308360;-71
2023/03/18 11:38:17;;;;;;;1.57;1.47;;;22.90;24.10;;;;;;20664;6860;117881;-70
2023/03/18 11:40:43;;;;;;;1.58;1.48;;;22.80;24.40;;;;;;20134;6875;308867;-70
2023/03/18 11:43:16;;;;;;;1.50;1.13;;;22.80;24.30;;;;;;20605;6867;122553;-71
2023/03/18 11:45:44;;;;;;;1.77;1.40;;;22.70;24.50;;;;;;20636;6861;117523;-70
2023/03/18 11:48:10;;;;;;;2.63;1.30;;;22.50;24.70;;;;;;20419;6872;279133;-72
2023/03/18 11:50:40;;;;;;;2.72;1.30;;;22.50;24.20;;;;;;20448;6861;331153;-73
2023/03/18 11:53:08;;;;;;;1.40;1.30;;;22.80;24.60;;;;;;20618;6870;118293;-73
2023/03/18 11:55:44;;;;;;;1.43;1.33;;;22.80;24.70;;;;;;20451;6860;278649;-71
2023/03/18 11:58:30;;;;;;;1.27;1.17;;;22.90;23.90;;;;;;20644;6866;118557;-73
2023/03/18 12:01:18;;;;;;;2.13;1.00;;;22.80;24.40;;;;;;20676;6863;118256;-72
2023/03/18 12:04:04;;;;;;;2.50;1.40;;;22.50;24.70;;;;;;20418;6863;278938;-71
2023/03/18 12:06:30;;;;;;;1.53;1.40;;;22.90;24.80;;;;;;20454;6860;283367;-74
2023/03/18 12:09:16;;;;;;;2.10;1.30;;;23.10;24.10;;;;;;20445;6860;300922;-76
2023/03/18 12:11:41;;;;;;;2.50;1.30;;;23.10;24.10;;;;;;20434;6860;311337;-71
2023/03/18 12:14:10;;;;;;;2.83;1.48;;;23.30;23.80;;;;;;20432;6860;278827;-71
2023/03/18 12:16:39;;;;;;;1.67;1.27;;;23.40;23.10;;;;;;19743;6860;278771;-73
2023/03/18 12:19:23;;;;;;;6.70;1.50;;;23.50;22.60;;;;;;20434;6860;278504;-70
2023/03/18 12:22:07;;;;;;;1.20;1.10;;;23.50;22.90;;;;;;20441;6860;279252;-74
2023/03/18 12:24:55;;;;;;;1.73;1.30;;;23.50;22.40;;;;;;20462;6860;308353;-73
2023/03/18 12:27:24;;;;;;;1.70;1.60;;;23.50;22.50;;;;;;20652;6860;119516;-72
2023/03/18 12:29:59;;;;;;;1.67;1.57;;;23.10;23.10;;;;;;20599;6860;123507;-74
2023/03/18 12:32:34;;;;;;;1.80;1.40;;;22.80;23.60;;;;;;20464;6860;285139;-74
2023/03/18 12:35:03;;;;;;;0.97;0.97;;;22.80;23.60;;;;;;20665;6860;117609;-73
2023/03/18 12:37:45;;;;;;;2.30;1.30;;;22.80;24.00;;;;;;20673;6860;117170;-72
2023/03/18 12:40:29;;;;;;;3.37;1.43;;;22.40;23.80;;;;;;19603;7213;123181;-71
2023/03/18 12:43:17;;;;;;;1.30;1.20;;;22.30;23.70;;;;;;20043;6851;122282;-71